sensor_id;sensor_type;location;lat;lon;timestamp;P1;durP1;ratioP1;P2;durP2;ratioP2
39482;SDS011;25682;48.438;1.482;2022-07-06T14:55:19;6.93;;;3.20;;
39482;SDS011;25682;48.438;1.482;2022-07-06T14:57:45;4.95;;;3.03;;
39482;SDS011;25682;48.438;1.482;2022-07-06T15:00:12;6.22;;;2.58;;
39482;SDS011;25682;48.438;1.482;2022-07-06T15:02:39;5.03;;;2.85;;
39482;SDS011;25682;48.438;1.482;2022-07-06T15:05:06;3.88;;;2.40;;
39482;SDS011;25682;48.438;1.482;2022-07-06T15:07:32;5.72;;;2.55;;
39482;SDS011;25682;48.438;1.482;2022-07-06T15:09:58;5.35;;;2.40;;
39482;SDS011;25682;48.438;1.482;2022-07-06T15:12:24;6.40;;;2.63;;
39482;SDS011;25682;48.438;1.482;2022-07-06T15:14:50;3.90;;;2.10;;
39482;SDS011;25682;48.438;1.482;2022-07-06T15:17:17;7.80;;;2.72;;
39482;SDS011;25682;48.438;1.482;2022-07-06T15:19:43;8.07;;;2.17;;
39482;SDS011;25682;48.438;1.482;2022-07-06T15:22:10;6.93;;;3.15;;
39482;SDS011;25682;48.438;1.482;2022-07-06T15:24:36;6.97;;;2.50;;
39482;SDS011;25682;48.438;1.482;2022-07-06T15:27:05;5.40;;;2.65;;
39482;SDS011;25682;48.438;1.482;2022-07-06T15:29:31;6.10;;;2.30;;
39482;SDS011;25682;48.438;1.482;2022-07-06T15:31:57;3.13;;;2.20;;
39482;SDS011;25682;48.438;1.482;2022-07-06T15:34:23;2.90;;;2.17;;
39482;SDS011;25682;48.438;1.482;2022-07-06T15:36:48;7.43;;;3.00;;
39482;SDS011;25682;48.438;1.482;2022-07-06T15:39:14;3.47;;;2.20;;
39482;SDS011;25682;48.438;1.482;2022-07-06T15:41:41;4.38;;;2.13;;
39482;SDS011;25682;48.438;1.482;2022-07-06T15:44:06;5.90;;;2.42;;
39482;SDS011;25682;48.438;1.482;2022-07-06T15:46:32;4.43;;;1.92;;
39482;SDS011;25682;48.438;1.482;2022-07-06T15:48:57;2.10;;;1.70;;
39482;SDS011;25682;48.438;1.482;2022-07-06T15:51:23;3.78;;;1.85;;
39482;SDS011;25682;48.438;1.482;2022-07-06T15:53:49;2.58;;;1.70;;
39482;SDS011;25682;48.438;1.482;2022-07-06T15:56:14;4.57;;;1.77;;
39482;SDS011;25682;48.438;1.482;2022-07-06T15:58:41;2.55;;;1.75;;
39482;SDS011;25682;48.438;1.482;2022-07-06T16:01:07;2.78;;;1.90;;
39482;SDS011;25682;48.438;1.482;2022-07-06T16:03:32;7.15;;;2.00;;
39482;SDS011;25682;48.438;1.482;2022-07-06T16:05:58;3.38;;;2.15;;
39482;SDS011;25682;48.438;1.482;2022-07-06T16:08:25;4.20;;;1.48;;
39482;SDS011;25682;48.438;1.482;2022-07-06T16:10:51;5.35;;;1.73;;
39482;SDS011;25682;48.438;1.482;2022-07-06T16:13:16;3.38;;;1.80;;
39482;SDS011;25682;48.438;1.482;2022-07-06T16:15:44;2.45;;;1.40;;
39482;SDS011;25682;48.438;1.482;2022-07-06T16:18:10;2.03;;;1.80;;
39482;SDS011;25682;48.438;1.482;2022-07-06T16:20:36;2.08;;;1.58;;
39482;SDS011;25682;48.438;1.482;2022-07-06T16:23:01;9.10;;;1.90;;
39482;SDS011;25682;48.438;1.482;2022-07-06T16:25:27;3.47;;;2.40;;
39482;SDS011;25682;48.438;1.482;2022-07-06T16:27:53;2.42;;;1.50;;
39482;SDS011;25682;48.438;1.482;2022-07-06T16:30:19;1.90;;;1.70;;
39482;SDS011;25682;48.438;1.482;2022-07-06T16:32:44;2.80;;;1.58;;
39482;SDS011;25682;48.438;1.482;2022-07-06T16:35:10;5.38;;;1.85;;
39482;SDS011;25682;48.438;1.482;2022-07-06T16:37:35;1.77;;;1.23;;
39482;SDS011;25682;48.438;1.482;2022-07-06T16:40:01;4.60;;;1.55;;
39482;SDS011;25682;48.438;1.482;2022-07-06T16:42:27;2.08;;;1.45;;
39482;SDS011;25682;48.438;1.482;2022-07-06T16:44:52;2.78;;;1.50;;
39482;SDS011;25682;48.438;1.482;2022-07-06T16:47:18;2.35;;;1.50;;
39482;SDS011;25682;48.438;1.482;2022-07-06T16:49:44;2.13;;;1.25;;
39482;SDS011;25682;48.438;1.482;2022-07-06T16:52:09;3.63;;;1.40;;
39482;SDS011;25682;48.438;1.482;2022-07-06T16:54:35;1.42;;;1.20;;
39482;SDS011;25682;48.438;1.482;2022-07-06T16:57:01;2.42;;;1.20;;
39482;SDS011;25682;48.438;1.482;2022-07-06T16:59:26;2.15;;;1.30;;
39482;SDS011;25682;48.438;1.482;2022-07-06T17:01:54;5.40;;;1.60;;
39482;SDS011;25682;48.438;1.482;2022-07-06T17:04:20;1.95;;;1.25;;
39482;SDS011;25682;48.438;1.482;2022-07-06T17:06:46;2.78;;;1.33;;
39482;SDS011;25682;48.438;1.482;2022-07-06T17:09:12;5.75;;;2.45;;
39482;SDS011;25682;48.438;1.482;2022-07-06T17:11:37;7.72;;;2.17;;
39482;SDS011;25682;48.438;1.482;2022-07-06T17:14:03;6.47;;;1.42;;
39482;SDS011;25682;48.438;1.482;2022-07-06T17:16:29;4.78;;;1.40;;
39482;SDS011;25682;48.438;1.482;2022-07-06T17:18:55;6.28;;;2.53;;
39482;SDS011;25682;48.438;1.482;2022-07-06T17:21:20;8.73;;;1.40;;
39482;SDS011;25682;48.438;1.482;2022-07-06T17:23:47;6.20;;;1.80;;
39482;SDS011;25682;48.438;1.482;2022-07-06T17:26:14;4.80;;;1.80;;
39482;SDS011;25682;48.438;1.482;2022-07-06T17:28:40;5.75;;;1.52;;
39482;SDS011;25682;48.438;1.482;2022-07-06T17:31:05;5.10;;;1.77;;
39482;SDS011;25682;48.438;1.482;2022-07-06T17:33:31;3.80;;;1.30;;
39482;SDS011;25682;48.438;1.482;2022-07-06T17:35:57;3.38;;;1.45;;
39482;SDS011;25682;48.438;1.482;2022-07-06T17:38:22;3.95;;;1.52;;
39482;SDS011;25682;48.438;1.482;2022-07-06T17:40:48;4.70;;;1.15;;
39482;SDS011;25682;48.438;1.482;2022-07-06T17:43:14;6.18;;;1.40;;
39482;SDS011;25682;48.438;1.482;2022-07-06T17:45:40;4.57;;;1.17;;
39482;SDS011;25682;48.438;1.482;2022-07-06T17:48:05;3.00;;;1.42;;
39482;SDS011;25682;48.438;1.482;2022-07-06T17:50:31;5.82;;;1.50;;
39482;SDS011;25682;48.438;1.482;2022-07-06T17:52:58;6.35;;;1.30;;
39482;SDS011;25682;48.438;1.482;2022-07-06T17:55:24;3.08;;;1.20;;
39482;SDS011;25682;48.438;1.482;2022-07-06T17:57:50;7.60;;;1.88;;
39482;SDS011;25682;48.438;1.482;2022-07-06T18:00:15;3.67;;;1.40;;
39482;SDS011;25682;48.438;1.482;2022-07-06T18:02:41;2.95;;;1.20;;
39482;SDS011;25682;48.438;1.482;2022-07-06T18:05:08;3.13;;;0.98;;
39482;SDS011;25682;48.438;1.482;2022-07-06T18:07:34;2.15;;;1.00;;
39482;SDS011;25682;48.438;1.482;2022-07-06T18:10:00;2.53;;;1.00;;
39482;SDS011;25682;48.438;1.482;2022-07-06T18:12:26;3.28;;;1.00;;
39482;SDS011;25682;48.438;1.482;2022-07-06T18:14:52;4.30;;;1.10;;
39482;SDS011;25682;48.438;1.482;2022-07-06T18:17:17;3.53;;;1.20;;
39482;SDS011;25682;48.438;1.482;2022-07-06T18:19:49;5.38;;;1.25;;
39482;SDS011;25682;48.438;1.482;2022-07-06T18:22:18;2.03;;;1.08;;
39482;SDS011;25682;48.438;1.482;2022-07-06T18:24:43;10.30;;;1.10;;
39482;SDS011;25682;48.438;1.482;2022-07-06T18:27:09;2.35;;;1.10;;
39482;SDS011;25682;48.438;1.482;2022-07-06T18:29:34;6.90;;;1.17;;
39482;SDS011;25682;48.438;1.482;2022-07-06T18:32:00;7.68;;;0.63;;
39482;SDS011;25682;48.438;1.482;2022-07-06T18:34:26;8.27;;;1.65;;
39482;SDS011;25682;48.438;1.482;2022-07-06T18:36:52;5.25;;;0.95;;
39482;SDS011;25682;48.438;1.482;2022-07-06T18:39:18;4.93;;;1.05;;
39482;SDS011;25682;48.438;1.482;2022-07-06T18:41:44;5.47;;;1.00;;
39482;SDS011;25682;48.438;1.482;2022-07-06T18:44:10;2.60;;;1.10;;
39482;SDS011;25682;48.438;1.482;2022-07-06T18:46:36;7.03;;;2.22;;
39482;SDS011;25682;48.438;1.482;2022-07-06T18:49:02;8.30;;;1.10;;
39482;SDS011;25682;48.438;1.482;2022-07-06T18:51:28;7.05;;;1.02;;
39482;SDS011;25682;48.438;1.482;2022-07-06T18:53:54;5.80;;;1.27;;
39482;SDS011;25682;48.438;1.482;2022-07-06T18:56:20;5.90;;;1.10;;
39482;SDS011;25682;48.438;1.482;2022-07-06T18:58:46;4.90;;;1.05;;
39482;SDS011;25682;48.438;1.482;2022-07-06T19:01:15;3.42;;;1.05;;
39482;SDS011;25682;48.438;1.482;2022-07-06T19:03:42;9.48;;;1.35;;
39482;SDS011;25682;48.438;1.482;2022-07-06T19:06:09;9.38;;;1.00;;
39482;SDS011;25682;48.438;1.482;2022-07-06T19:08:38;9.32;;;1.20;;
39482;SDS011;25682;48.438;1.482;2022-07-06T19:11:04;9.20;;;1.17;;
39482;SDS011;25682;48.438;1.482;2022-07-06T19:13:29;14.00;;;1.42;;
39482;SDS011;25682;48.438;1.482;2022-07-06T19:15:55;11.15;;;1.05;;
39482;SDS011;25682;48.438;1.482;2022-07-06T19:18:21;7.82;;;1.08;;
39482;SDS011;25682;48.438;1.482;2022-07-06T19:20:46;6.55;;;1.30;;
39482;SDS011;25682;48.438;1.482;2022-07-06T19:23:12;5.53;;;1.15;;
39482;SDS011;25682;48.438;1.482;2022-07-06T19:25:39;1.65;;;1.20;;
39482;SDS011;25682;48.438;1.482;2022-07-06T19:28:07;3.30;;;0.88;;
39482;SDS011;25682;48.438;1.482;2022-07-06T19:30:33;4.50;;;1.02;;
39482;SDS011;25682;48.438;1.482;2022-07-06T19:32:59;4.03;;;0.88;;
39482;SDS011;25682;48.438;1.482;2022-07-06T19:35:25;3.42;;;1.00;;
39482;SDS011;25682;48.438;1.482;2022-07-06T19:37:50;1.92;;;1.00;;
39482;SDS011;25682;48.438;1.482;2022-07-06T19:40:16;2.53;;;0.95;;
39482;SDS011;25682;48.438;1.482;2022-07-06T19:42:42;1.83;;;0.70;;
39482;SDS011;25682;48.438;1.482;2022-07-06T19:45:07;7.25;;;1.10;;
39482;SDS011;25682;48.438;1.482;2022-07-06T19:47:33;1.83;;;1.00;;
39482;SDS011;25682;48.438;1.482;2022-07-06T19:49:59;4.70;;;1.00;;
39482;SDS011;25682;48.438;1.482;2022-07-06T19:52:25;4.32;;;1.00;;
39482;SDS011;25682;48.438;1.482;2022-07-06T19:54:50;3.78;;;0.80;;
39482;SDS011;25682;48.438;1.482;2022-07-06T19:57:16;1.13;;;0.85;;
39482;SDS011;25682;48.438;1.482;2022-07-06T19:59:41;2.83;;;1.13;;
39482;SDS011;25682;48.438;1.482;2022-07-06T20:02:07;3.38;;;1.50;;
39482;SDS011;25682;48.438;1.482;2022-07-06T20:04:33;2.47;;;1.00;;
39482;SDS011;25682;48.438;1.482;2022-07-06T20:06:59;3.25;;;1.08;;
39482;SDS011;25682;48.438;1.482;2022-07-06T20:09:24;3.08;;;1.17;;
39482;SDS011;25682;48.438;1.482;2022-07-06T20:11:50;1.40;;;0.80;;
39482;SDS011;25682;48.438;1.482;2022-07-06T20:14:15;5.93;;;1.08;;
39482;SDS011;25682;48.438;1.482;2022-07-06T20:16:41;1.77;;;1.23;;
39482;SDS011;25682;48.438;1.482;2022-07-06T20:19:07;1.92;;;1.05;;
39482;SDS011;25682;48.438;1.482;2022-07-06T20:21:32;1.55;;;1.15;;
39482;SDS011;25682;48.438;1.482;2022-07-06T20:23:58;2.67;;;1.10;;
39482;SDS011;25682;48.438;1.482;2022-07-06T20:26:23;1.85;;;0.90;;
39482;SDS011;25682;48.438;1.482;2022-07-06T20:28:49;4.05;;;1.10;;
39482;SDS011;25682;48.438;1.482;2022-07-06T20:31:14;3.00;;;0.95;;
39482;SDS011;25682;48.438;1.482;2022-07-06T20:33:40;6.40;;;1.10;;
39482;SDS011;25682;48.438;1.482;2022-07-06T20:36:07;4.03;;;0.90;;
39482;SDS011;25682;48.438;1.482;2022-07-06T20:38:36;4.30;;;1.30;;
39482;SDS011;25682;48.438;1.482;2022-07-06T20:41:02;4.40;;;1.33;;
39482;SDS011;25682;48.438;1.482;2022-07-06T20:43:27;2.47;;;1.10;;
39482;SDS011;25682;48.438;1.482;2022-07-06T20:45:53;6.55;;;0.77;;
39482;SDS011;25682;48.438;1.482;2022-07-06T20:48:19;3.20;;;1.15;;
39482;SDS011;25682;48.438;1.482;2022-07-06T20:50:44;3.47;;;0.82;;
39482;SDS011;25682;48.438;1.482;2022-07-06T20:53:10;3.65;;;1.15;;
39482;SDS011;25682;48.438;1.482;2022-07-06T20:55:36;1.95;;;1.00;;
39482;SDS011;25682;48.438;1.482;2022-07-06T20:58:06;3.45;;;1.00;;
39482;SDS011;25682;48.438;1.482;2022-07-06T21:00:33;1.50;;;0.98;;
39482;SDS011;25682;48.438;1.482;2022-07-06T21:02:59;1.70;;;0.90;;
39482;SDS011;25682;48.438;1.482;2022-07-06T21:05:25;6.55;;;1.38;;
39482;SDS011;25682;48.438;1.482;2022-07-06T21:07:50;3.08;;;1.10;;
39482;SDS011;25682;48.438;1.482;2022-07-06T21:10:16;2.92;;;0.90;;
39482;SDS011;25682;48.438;1.482;2022-07-06T21:12:42;1.77;;;0.90;;
39482;SDS011;25682;48.438;1.482;2022-07-06T21:15:07;1.65;;;1.00;;
39482;SDS011;25682;48.438;1.482;2022-07-06T21:17:36;2.00;;;0.88;;
39482;SDS011;25682;48.438;1.482;2022-07-06T21:20:02;1.95;;;0.90;;
39482;SDS011;25682;48.438;1.482;2022-07-06T21:22:29;2.00;;;0.98;;
39482;SDS011;25682;48.438;1.482;2022-07-06T21:24:54;0.93;;;0.60;;
39482;SDS011;25682;48.438;1.482;2022-07-06T21:27:20;1.92;;;1.00;;
39482;SDS011;25682;48.438;1.482;2022-07-06T21:29:46;1.10;;;0.70;;
39482;SDS011;25682;48.438;1.482;2022-07-06T21:32:11;1.77;;;0.60;;
39482;SDS011;25682;48.438;1.482;2022-07-06T21:34:37;2.30;;;1.10;;
39482;SDS011;25682;48.438;1.482;2022-07-06T21:37:03;0.93;;;0.60;;
39482;SDS011;25682;48.438;1.482;2022-07-06T21:39:29;2.58;;;0.93;;
39482;SDS011;25682;48.438;1.482;2022-07-06T21:41:55;6.20;;;1.00;;
39482;SDS011;25682;48.438;1.482;2022-07-06T21:44:20;1.20;;;0.80;;
39482;SDS011;25682;48.438;1.482;2022-07-06T21:46:46;2.97;;;0.80;;
39482;SDS011;25682;48.438;1.482;2022-07-06T21:49:11;1.55;;;0.70;;
39482;SDS011;25682;48.438;1.482;2022-07-06T21:51:37;1.48;;;0.73;;
39482;SDS011;25682;48.438;1.482;2022-07-06T21:54:03;1.38;;;0.60;;
39482;SDS011;25682;48.438;1.482;2022-07-06T21:56:28;2.17;;;0.60;;
39482;SDS011;25682;48.438;1.482;2022-07-06T21:58:54;6.43;;;1.38;;
39482;SDS011;25682;48.438;1.482;2022-07-06T22:01:20;3.60;;;1.23;;
39482;SDS011;25682;48.438;1.482;2022-07-06T22:03:45;2.50;;;1.20;;
39482;SDS011;25682;48.438;1.482;2022-07-06T22:06:11;2.97;;;1.10;;
39482;SDS011;25682;48.438;1.482;2022-07-06T22:08:37;3.00;;;0.73;;
39482;SDS011;25682;48.438;1.482;2022-07-06T22:11:02;4.50;;;1.20;;
39482;SDS011;25682;48.438;1.482;2022-07-06T22:13:28;1.15;;;0.80;;
39482;SDS011;25682;48.438;1.482;2022-07-06T22:16:06;1.98;;;1.00;;
39482;SDS011;25682;48.438;1.482;2022-07-06T22:18:42;2.78;;;0.85;;
39482;SDS011;25682;48.438;1.482;2022-07-06T22:21:13;1.42;;;0.80;;
39482;SDS011;25682;48.438;1.482;2022-07-06T22:23:39;2.88;;;1.10;;
39482;SDS011;25682;48.438;1.482;2022-07-06T22:26:09;0.65;;;0.60;;
39482;SDS011;25682;48.438;1.482;2022-07-06T22:28:38;1.40;;;0.70;;
39482;SDS011;25682;48.438;1.482;2022-07-06T22:31:05;1.27;;;0.70;;
39482;SDS011;25682;48.438;1.482;2022-07-06T22:33:32;1.92;;;0.73;;
39482;SDS011;25682;48.438;1.482;2022-07-06T22:35:58;3.55;;;1.00;;
39482;SDS011;25682;48.438;1.482;2022-07-06T22:38:24;2.42;;;1.02;;
39482;SDS011;25682;48.438;1.482;2022-07-06T22:40:50;1.60;;;1.02;;
39482;SDS011;25682;48.438;1.482;2022-07-06T22:43:32;0.93;;;0.60;;
39482;SDS011;25682;48.438;1.482;2022-07-06T22:46:01;0.63;;;0.57;;
39482;SDS011;25682;48.438;1.482;2022-07-06T22:48:28;1.33;;;0.82;;
39482;SDS011;25682;48.438;1.482;2022-07-06T22:50:57;2.33;;;0.70;;
39482;SDS011;25682;48.438;1.482;2022-07-06T22:53:23;0.80;;;0.70;;
39482;SDS011;25682;48.438;1.482;2022-07-06T22:55:50;3.63;;;0.82;;
39482;SDS011;25682;48.438;1.482;2022-07-06T22:58:16;2.97;;;0.90;;
39482;SDS011;25682;48.438;1.482;2022-07-06T23:00:42;1.63;;;0.70;;
39482;SDS011;25682;48.438;1.482;2022-07-06T23:03:08;1.92;;;0.82;;
39482;SDS011;25682;48.438;1.482;2022-07-06T23:05:34;0.65;;;0.63;;
39482;SDS011;25682;48.438;1.482;2022-07-06T23:08:00;0.52;;;0.30;;
39482;SDS011;25682;48.438;1.482;2022-07-06T23:10:26;1.15;;;0.80;;
39482;SDS011;25682;48.438;1.482;2022-07-06T23:12:52;1.45;;;0.60;;
39482;SDS011;25682;48.438;1.482;2022-07-06T23:15:19;2.03;;;1.10;;
39482;SDS011;25682;48.438;1.482;2022-07-06T23:17:45;0.65;;;0.55;;
39482;SDS011;25682;48.438;1.482;2022-07-06T23:20:10;1.95;;;0.50;;
39482;SDS011;25682;48.438;1.482;2022-07-06T23:22:36;1.00;;;0.60;;
39482;SDS011;25682;48.438;1.482;2022-07-06T23:25:03;0.93;;;0.60;;
39482;SDS011;25682;48.438;1.482;2022-07-06T23:27:29;1.25;;;1.00;;
39482;SDS011;25682;48.438;1.482;2022-07-06T23:29:54;2.40;;;1.15;;
39482;SDS011;25682;48.438;1.482;2022-07-06T23:32:20;2.33;;;0.60;;
39482;SDS011;25682;48.438;1.482;2022-07-06T23:34:46;0.90;;;0.47;;
39482;SDS011;25682;48.438;1.482;2022-07-06T23:37:11;0.70;;;0.60;;
39482;SDS011;25682;48.438;1.482;2022-07-06T23:39:37;1.13;;;0.52;;
39482;SDS011;25682;48.438;1.482;2022-07-06T23:42:03;0.90;;;0.60;;
39482;SDS011;25682;48.438;1.482;2022-07-06T23:44:30;0.70;;;0.50;;
39482;SDS011;25682;48.438;1.482;2022-07-06T23:46:58;1.33;;;0.88;;
39482;SDS011;25682;48.438;1.482;2022-07-06T23:49:25;1.42;;;0.60;;
39482;SDS011;25682;48.438;1.482;2022-07-06T23:51:51;0.80;;;0.60;;
39482;SDS011;25682;48.438;1.482;2022-07-06T23:54:17;0.80;;;0.60;;
39482;SDS011;25682;48.438;1.482;2022-07-06T23:56:42;1.52;;;0.63;;
39482;SDS011;25682;48.438;1.482;2022-07-06T23:59:08;0.88;;;0.65;;
